Time;durP1;ratioP1;P1;durP2;ratioP2;P2;SDS_P1;SDS_P2;PMS_P1;PMS_P2;Temp;Humidity;BMP_temperature;BMP_pressure;BME280_temperature;BME280_humidity;BME280_pressure;Samples;Min_cycle;Max_cycle;Signal;HPM_P1;HPM_P2
2023/07/07 00:01:04;;;;;;;;;;;;;;;16.97;36.23;101133.28;4943934;28;98141;-68
2023/07/07 00:03:30;;;;;;;;;;;;;;;16.92;36.13;101134.16;4935967;28;97987;-64
2023/07/07 00:05:57;;;;;;;;;;;;;;;16.89;36.21;101139.38;4938539;28;97976;-68
2023/07/07 00:08:23;;;;;;;;;;;;;;;16.85;36.21;101138.34;4940000;28;98974;-69
2023/07/07 00:10:51;;;;;;;;;;;;;;;16.81;36.17;101143.56;4918986;28;98135;-68
2023/07/07 00:13:17;;;;;;;;;;;;;;;16.77;36.19;101141.72;4928848;28;98307;-64
2023/07/07 00:15:46;;;;;;;;;;;;;;;16.72;36.23;101144.47;4941979;28;98167;-64
2023/07/07 00:18:13;;;;;;;;;;;;;;;16.66;36.19;101146.44;4924152;28;98992;-68
2023/07/07 00:20:39;;;;;;;;;;;;;;;16.61;36.14;101146.53;4926195;28;98029;-64
2023/07/07 00:23:06;;;;;;;;;;;;;;;16.56;36.21;101144.66;4925730;28;97846;-64
2023/07/07 00:25:32;;;;;;;;;;;;;;;16.52;36.11;101145.56;4939849;28;98693;-68
2023/07/07 00:27:58;;;;;;;;;;;;;;;16.49;36.11;101152.38;4926019;28;99447;-64
2023/07/07 00:30:25;;;;;;;;;;;;;;;16.47;36.19;101151.06;4918358;28;97951;-64
2023/07/07 00:32:51;;;;;;;;;;;;;;;16.44;36.44;101150.53;4935926;28;99098;-64
2023/07/07 00:35:18;;;;;;;;;;;;;;;16.41;36.31;101158.47;4937640;28;100153;-68
2023/07/07 00:37:44;;;;;;;;;;;;;;;16.39;36.45;101164.19;4925111;28;98491;-64
2023/07/07 00:40:11;;;;;;;;;;;;;;;16.37;36.34;101157.41;4927376;28;99449;-64
2023/07/07 00:42:38;;;;;;;;;;;;;;;16.35;36.12;101159.63;4928425;28;98560;-64
2023/07/07 00:45:24;;;;;;;;;;;;;;;16.34;36.35;101161.50;4924082;28;98333;-68
2023/07/07 00:47:53;;;;;;;;;;;;;;;16.35;36.21;101162.34;4936727;28;98493;-67
2023/07/07 00:50:20;;;;;;;;;;;;;;;16.33;36.48;101159.91;4936850;28;98155;-68
2023/07/07 00:52:47;;;;;;;;;;;;;;;16.32;36.36;101158.28;4923774;28;97959;-64
2023/07/07 00:55:24;;;;;;;;;;;;;;;16.30;36.28;101165.91;4924217;28;98212;-64
2023/07/07 00:57:50;;;;;;;;;;;;;;;16.28;36.28;101170.84;4919833;28;98020;-64
2023/07/07 01:00:16;;;;;;;;;;;;;;;16.25;36.31;101171.41;4919390;28;99699;-68
2023/07/07 01:02:46;;;;;;;;;;;;;;;16.26;36.32;101164.06;4925589;28;99101;-68
2023/07/07 01:05:13;;;;;;;;;;;;;;;16.33;36.22;101167.25;4938844;28;98567;-68
2023/07/07 01:07:42;;;;;;;;;;;;;;;16.38;36.28;101168.00;4934178;28;98423;-69
2023/07/07 01:10:08;;;;;;;;;;;;;;;16.41;36.29;101169.34;4928367;28;99424;-68
2023/07/07 01:12:34;;;;;;;;;;;;;;;16.43;36.48;101172.59;4925674;28;98175;-68
2023/07/07 01:15:01;;;;;;;;;;;;;;;16.44;36.48;101168.78;4923670;28;99779;-63
2023/07/07 01:17:34;;;;;;;;;;;;;;;16.45;36.36;101176.63;4923015;28;98316;-68
2023/07/07 01:20:24;;;;;;;;;;;;;;;16.46;36.36;101177.44;4935251;28;98211;-68
2023/07/07 01:23:03;;;;;;;;;;;;;;;16.42;36.38;101169.03;4942682;28;98140;-64
2023/07/07 01:25:59;;;;;;;;;;;;;;;16.37;36.51;101168.28;4944541;28;98588;-64
2023/07/07 01:28:31;;;;;;;;;;;;;;;16.31;36.37;101169.44;4953080;28;98136;-68
2023/07/07 01:31:01;;;;;;;;;;;;;;;16.27;36.52;101173.84;4954887;28;98322;-68
2023/07/07 01:33:28;;;;;;;;;;;;;;;16.24;36.69;101179.88;4939663;28;97916;-67
2023/07/07 01:35:55;;;;;;;;;;;;;;;16.20;36.46;101171.47;4939315;28;97992;-63
2023/07/07 01:38:37;;;;;;;;;;;;;;;16.17;36.61;101172.84;4938536;28;97941;-68
2023/07/07 01:41:15;;;;;;;;;;;;;;;16.13;36.49;101176.44;4934963;28;98198;-68
2023/07/07 01:43:53;;;;;;;;;;;;;;;16.09;36.74;101178.91;4936281;28;98538;-64
2023/07/07 01:46:30;;;;;;;;;;;;;;;16.05;36.53;101169.72;4949062;28;98360;-64
2023/07/07 01:49:05;;;;;;;;;;;;;;;16.01;36.62;101170.56;4918969;28;99408;-64
2023/07/07 01:52:06;;;;;;;;;;;;;;;15.98;36.71;101161.06;4921447;28;98623;-68
2023/07/07 01:54:34;;;;;;;;;;;;;;;15.92;36.53;101163.03;4912686;28;97996;-63
2023/07/07 01:57:00;;;;;;;;;;;;;;;15.90;36.64;101164.41;4923509;28;97912;-68
2023/07/07 01:59:27;;;;;;;;;;;;;;;15.86;36.85;101158.75;4923705;28;99288;-64
2023/07/07 02:01:55;;;;;;;;;;;;;;;15.83;36.64;101159.31;4925557;28;98045;-64
2023/07/07 02:04:22;;;;;;;;;;;;;;;15.81;36.66;101166.94;4920175;28;98335;-64
2023/07/07 02:06:48;;;;;;;;;;;;;;;15.78;36.59;101158.56;4941688;28;98645;-64
2023/07/07 02:09:15;;;;;;;;;;;;;;;15.73;36.84;101169.47;4920083;28;98036;-68
2023/07/07 02:11:41;;;;;;;;;;;;;;;15.68;36.78;101173.06;4920477;28;98141;-64
2023/07/07 02:14:07;;;;;;;;;;;;;;;15.65;36.90;101176.34;4921750;28;99351;-64
2023/07/07 02:16:33;;;;;;;;;;;;;;;15.60;36.58;101173.59;4922912;28;97837;-64
2023/07/07 02:19:02;;;;;;;;;;;;;;;15.57;36.85;101171.47;4936587;28;98020;-64
2023/07/07 02:21:28;;;;;;;;;;;;;;;15.54;36.71;101175.56;4916624;28;98147;-67
2023/07/07 02:23:55;;;;;;;;;;;;;;;15.51;36.63;101181.56;4926149;28;98564;-68
2023/07/07 02:26:21;;;;;;;;;;;;;;;15.48;36.76;101173.97;4921141;28;98066;-64
2023/07/07 02:28:47;;;;;;;;;;;;;;;15.45;36.66;101179.97;4927694;28;100274;-64
2023/07/07 02:31:14;;;;;;;;;;;;;;;15.43;36.73;101184.88;4915112;28;97952;-64
2023/07/07 02:33:40;;;;;;;;;;;;;;;15.41;36.96;101190.59;4923408;28;98386;-64
2023/07/07 02:36:07;;;;;;;;;;;;;;;15.37;36.76;101184.09;4922595;28;98481;-64
2023/07/07 02:38:35;;;;;;;;;;;;;;;15.34;36.94;101186.56;4924561;28;97816;-64
2023/07/07 02:41:02;;;;;;;;;;;;;;;15.30;37.03;101188.22;4925447;28;98396;-63
2023/07/07 02:43:29;;;;;;;;;;;;;;;15.28;37.09;101182.25;4916597;28;99423;-68
2023/07/07 02:45:56;;;;;;;;;;;;;;;15.25;36.77;101175.50;4940352;28;98234;-67
2023/07/07 02:48:22;;;;;;;;;;;;;;;15.22;36.69;101179.59;4924449;28;98013;-68
2023/07/07 02:50:56;;;;;;;;;;;;;;;15.21;36.91;101182.59;4924366;28;98541;-64
2023/07/07 02:53:26;;;;;;;;;;;;;;;15.18;36.99;101181.22;4919370;28;98278;-68
2023/07/07 02:55:53;;;;;;;;;;;;;;;15.17;36.83;101187.75;4921795;28;99396;-68
2023/07/07 02:58:19;;;;;;;;;;;;;;;15.13;37.08;101188.59;4923788;28;98462;-68
2023/07/07 03:00:46;;;;;;;;;;;;;;;15.10;36.65;101186.44;4924029;28;98155;-68
2023/07/07 03:03:12;;;;;;;;;;;;;;;15.08;37.06;101194.84;4937859;28;99052;-67
2023/07/07 03:05:39;;;;;;;;;;;;;;;15.04;36.84;101188.38;4924416;28;98024;-64
2023/07/07 03:08:05;;;;;;;;;;;;;;;15.03;36.85;101197.59;4941365;28;98660;-68
2023/07/07 03:10:35;;;;;;;;;;;;;;;15.00;37.00;101195.44;4927959;27;98223;-68
2023/07/07 03:13:02;;;;;;;;;;;;;;;14.98;36.69;101200.34;4942911;28;98102;-64
2023/07/07 03:15:38;;;;;;;;;;;;;;;14.95;37.02;101195.47;4945589;27;99234;-64
2023/07/07 03:18:13;;;;;;;;;;;;;;;14.94;37.00;101199.28;4928780;27;98038;-64
2023/07/07 03:20:45;;;;;;;;;;;;;;;14.92;36.68;101202.25;4920941;28;97996;-65
2023/07/07 03:23:11;;;;;;;;;;;;;;;14.93;36.93;101206.63;4925001;27;98351;-63
2023/07/07 03:25:38;;;;;;;;;;;;;;;14.92;36.97;101204.97;4919451;28;100659;-64
2023/07/07 03:28:04;;;;;;;;;;;;;;;14.92;36.83;101204.16;4924698;28;98238;-64
2023/07/07 03:30:31;;;;;;;;;;;;;;;14.92;36.64;101217.75;4926613;27;98088;-64
2023/07/07 03:32:57;;;;;;;;;;;;;;;14.90;37.01;101212.59;4925519;28;98300;-64
2023/07/07 03:35:23;;;;;;;;;;;;;;;14.88;36.81;101211.25;4929948;28;98211;-68
2023/07/07 03:37:49;;;;;;;;;;;;;;;14.87;36.96;101213.16;4920408;27;98106;-64
2023/07/07 03:40:16;;;;;;;;;;;;;;;14.85;36.80;101201.75;4945130;27;98819;-64
2023/07/07 03:42:42;;;;;;;;;;;;;;;14.87;36.64;101212.34;4926107;27;98451;-64
2023/07/07 03:45:10;;;;;;;;;;;;;;;14.88;36.83;101209.34;4932794;28;100168;-64
2023/07/07 03:47:36;;;;;;;;;;;;;;;14.88;36.79;101208.53;4944065;28;98050;-64
2023/07/07 03:50:03;;;;;;;;;;;;;;;14.89;36.73;101204.72;4930361;28;98180;-68
2023/07/07 03:52:29;;;;;;;;;;;;;;;14.89;37.03;101212.88;4945893;28;98223;-64
2023/07/07 03:54:55;;;;;;;;;;;;;;;14.88;36.80;101211.25;4940988;27;98203;-64
2023/07/07 03:57:21;;;;;;;;;;;;;;;14.86;37.09;101214.25;4922613;28;98090;-64
2023/07/07 03:59:48;;;;;;;;;;;;;;;14.84;36.89;101212.91;4948494;28;98380;-64
2023/07/07 04:02:14;;;;;;;;;;;;;;;14.82;37.17;101215.91;4930358;28;97862;-64
2023/07/07 04:04:41;;;;;;;;;;;;;;;14.80;36.91;101204.50;4934542;27;98084;-67
2023/07/07 04:07:07;;;;;;;;;;;;;;;14.81;36.81;101219.69;4921406;28;98476;-64
2023/07/07 04:09:33;;;;;;;;;;;;;;;14.84;36.74;101212.91;4939546;28;108417;-68
2023/07/07 04:11:59;;;;;;;;;;;;;;;14.88;36.79;101209.34;4943258;27;98414;-64
2023/07/07 04:14:27;;;;;;;;;;;;;;;14.92;36.76;101215.84;4927155;28;98254;-68
2023/07/07 04:16:53;;;;;;;;;;;;;;;14.98;36.80;101214.75;4927076;28;99224;-68
2023/07/07 04:19:22;;;;;;;;;;;;;;;15.02;36.92;101220.44;4938950;27;98684;-64
2023/07/07 04:21:49;;;;;;;;;;;;;;;15.06;36.96;101217.97;4926651;27;97991;-64
2023/07/07 04:24:20;;;;;;;;;;;;;;;15.08;37.02;101219.28;4940588;27;98189;-64
2023/07/07 04:26:47;;;;;;;;;;;;;;;15.10;36.54;101222.56;4945195;28;98544;-68
2023/07/07 04:29:13;;;;;;;;;;;;;;;15.14;37.07;101223.63;4944829;28;100082;-68
2023/07/07 04:31:44;;;;;;;;;;;;;;;15.15;37.02;101219.81;4947083;27;98234;-64
2023/07/07 04:34:16;;;;;;;;;;;;;;;15.19;36.60;101223.59;4921605;28;98110;-68
2023/07/07 04:36:42;;;;;;;;;;;;;;;15.24;36.90;101222.75;4930101;27;98237;-64
2023/07/07 04:39:09;;;;;;;;;;;;;;;15.32;36.79;101226.78;4940734;28;99806;-68
2023/07/07 04:41:35;;;;;;;;;;;;;;;15.40;36.54;101224.25;4927505;28;97876;-68
2023/07/07 04:44:02;;;;;;;;;;;;;;;15.51;36.53;101229.66;4929837;27;98038;-64
2023/07/07 04:46:32;;;;;;;;;;;;;;;15.60;36.62;101236.94;4921615;28;98292;-68
2023/07/07 04:48:59;;;;;;;;;;;;;;;15.71;36.74;101232.25;4927127;27;98245;-68
2023/07/07 04:51:25;;;;;;;;;;;;;;;15.80;36.61;101236.00;4930791;28;98481;-64
2023/07/07 04:53:52;;;;;;;;;;;;;;;15.91;36.73;101242.97;4932072;28;98289;-64
2023/07/07 04:56:20;;;;;;;;;;;;;;;16.02;36.69;101246.41;4926398;28;97962;-64
2023/07/07 04:58:51;;;;;;;;;;;;;;;16.13;36.37;101242.50;4917122;28;98466;-68
2023/07/07 05:01:28;;;;;;;;;;;;;;;16.24;36.60;101243.25;4931227;28;97940;-68
2023/07/07 05:04:01;;;;;;;;;;;;;;;16.34;36.66;101245.84;4919322;28;98069;-64
2023/07/07 05:06:29;;;;;;;;;;;;;;;16.47;36.54;101247.09;4928074;28;98687;-68
2023/07/07 05:08:55;;;;;;;;;;;;;;;16.59;36.57;101244.78;4928434;28;99236;-68
2023/07/07 05:11:23;;;;;;;;;;;;;;;16.75;36.39;101250.09;4939069;27;98264;-64
2023/07/07 05:13:50;;;;;;;;;;;;;;;16.93;36.22;101243.88;4928104;27;98242;-64
2023/07/07 05:16:21;;;;;;;;;;;;;;;17.15;36.29;101244.16;4925882;28;99907;-64
2023/07/07 05:18:47;;;;;;;;;;;;;;;17.40;36.11;101250.34;4941111;27;98369;-68
2023/07/07 05:21:14;;;;;;;;;;;;;;;17.62;36.33;101242.41;4940441;28;98367;-68
2023/07/07 05:23:40;;;;;;;;;;;;;;;17.86;35.88;101241.50;4928611;28;98059;-68
2023/07/07 05:26:07;;;;;;;;;;;;;;;18.08;36.02;101252.59;4942014;28;97969;-64
2023/07/07 05:28:33;;;;;;;;;;;;;;;18.32;35.75;101246.19;4928198;27;98136;-64
2023/07/07 05:31:00;;;;;;;;;;;;;;;18.53;35.84;101250.16;4927590;27;98045;-68
2023/07/07 05:33:27;;;;;;;;;;;;;;;18.76;35.72;101242.94;4922282;28;98004;-64
2023/07/07 05:35:55;;;;;;;;;;;;;;;18.97;35.79;101256.16;4924236;27;100035;-68
2023/07/07 05:38:23;;;;;;;;;;;;;;;19.21;35.45;101248.53;4929343;27;97888;-68
2023/07/07 05:40:50;;;;;;;;;;;;;;;19.48;35.56;101249.59;4942558;27;98613;-68
2023/07/07 05:43:16;;;;;;;;;;;;;;;19.76;35.31;101250.34;4928909;28;98036;-68
2023/07/07 05:45:43;;;;;;;;;;;;;;;20.05;35.39;101260.84;4929743;27;99240;-65
2023/07/07 05:48:09;;;;;;;;;;;;;;;20.34;35.31;101260.38;4928807;28;98369;-68
2023/07/07 05:50:36;;;;;;;;;;;;;;;20.65;35.30;101262.31;4927436;28;99651;-65
2023/07/07 05:53:03;;;;;;;;;;;;;;;20.97;35.11;101253.72;4924792;27;97940;-65
2023/07/07 05:55:32;;;;;;;;;;;;;;;21.36;35.13;101260.28;4924628;28;98284;-68
2023/07/07 05:57:59;;;;;;;;;;;;;;;21.76;35.14;101260.94;4928284;27;98143;-65
2023/07/07 06:00:27;;;;;;;;;;;;;;;22.18;35.04;101258.50;4926627;28;98314;-65
2023/07/07 06:02:53;;;;;;;;;;;;;;;22.61;35.00;101265.78;4931732;28;100061;-65
2023/07/07 06:05:20;;;;;;;;;;;;;;;23.09;35.04;101256.34;4920905;28;99198;-65
2023/07/07 06:07:46;;;;;;;;;;;;;;;23.58;34.73;101264.09;4924833;27;98025;-69
2023/07/07 06:10:12;;;;;;;;;;;;;;;24.04;34.92;101263.06;4943882;28;99825;-69
2023/07/07 06:12:39;;;;;;;;;;;;;;;24.59;34.94;101267.34;4927352;27;98120;-65
2023/07/07 06:15:06;;;;;;;;;;;;;;;25.35;34.59;101271.34;4925596;27;98312;-69
2023/07/07 06:17:32;;;;;;;;;;;;;;;27.80;32.22;101280.75;4921963;28;97996;-70
2023/07/07 06:19:59;;;;;;;;;;;;;;;27.58;32.96;101284.19;4930008;27;98193;-70
2023/07/07 06:22:26;;;;;;;;;;;;;;;27.45;33.51;101289.06;4942539;27;99797;-66
2023/07/07 06:24:52;;;;;;;;;;;;;;;28.05;33.51;101292.31;4926710;27;98315;-65
2023/07/07 06:27:19;;;;;;;;;;;;;;;28.52;33.26;101287.63;4945946;27;98413;-70
2023/07/07 06:29:45;;;;;;;;;;;;;;;29.14;33.21;101285.47;4925373;28;98444;-70
2023/07/07 06:32:11;;;;;;;;;;;;;;;29.50;33.42;101286.75;4921205;28;98658;-69
2023/07/07 06:34:38;;;;;;;;;;;;;;;30.19;33.07;101285.63;4940302;28;98193;-70
2023/07/07 06:37:04;;;;;;;;;;;;;;;31.17;32.66;101297.19;4939873;28;98296;-70
2023/07/07 06:39:31;;;;;;;;;;;;;;;31.70;32.42;101291.09;4929597;27;98516;-71
2023/07/07 06:41:59;;;;;;;;;;;;;;;32.38;31.97;101292.06;4919519;28;98550;-70
2023/07/07 06:44:26;;;;;;;;;;;;;;;33.36;31.69;101283.22;4941656;28;99567;-66
2023/07/07 06:46:52;;;;;;;;;;;;;;;33.28;31.48;101280.88;4926581;27;98025;-66
2023/07/07 06:49:19;;;;;;;;;;;;;;;32.93;32.35;101279.75;4922127;28;98170;-66
2023/07/07 06:51:45;;;;;;;;;;;;;;;32.84;31.98;101274.56;4928516;27;98418;-71
2023/07/07 06:54:12;;;;;;;;;;;;;;;32.92;32.02;101266.97;4925467;27;98093;-70
2023/07/07 06:56:38;;;;;;;;;;;;;;;33.07;32.19;101264.97;4919815;28;98453;-71
2023/07/07 06:59:05;;;;;;;;;;;;;;;33.16;32.32;101257.75;4924066;28;98058;-70
2023/07/07 07:01:31;;;;;;;;;;;;;;;33.23;32.04;101266.13;4943235;27;100054;-66
2023/07/07 07:04:00;;;;;;;;;;;;;;;33.50;32.35;101268.44;4918707;28;99880;-71
2023/07/07 07:06:27;;;;;;;;;;;;;;;33.95;31.63;101272.19;4930781;28;98156;-67
2023/07/07 07:08:53;;;;;;;;;;;;;;;34.41;31.39;101271.09;4935368;28;98203;-71
2023/07/07 07:11:19;;;;;;;;;;;;;;;34.87;31.26;101274.72;4927688;27;98048;-67
2023/07/07 07:13:47;;;;;;;;;;;;;;;35.36;31.01;101265.00;4938419;27;98202;-67
2023/07/07 07:16:13;;;;;;;;;;;;;;;35.77;30.63;101278.13;4929548;27;98426;-71
2023/07/07 07:18:39;;;;;;;;;;;;;;;35.97;30.82;101271.84;4927318;27;97998;-71
2023/07/07 07:21:06;;;;;;;;;;;;;;;36.07;30.88;101266.06;4928491;28;97929;-67
2023/07/07 07:23:33;;;;;;;;;;;;;;;36.24;30.91;101277.47;4928014;28;99642;-71
2023/07/07 07:26:00;;;;;;;;;;;;;;;36.51;30.81;101277.44;4943975;27;98267;-67
2023/07/07 07:28:28;;;;;;;;;;;;;;;36.78;30.73;101269.72;4928285;28;98512;-71
2023/07/07 07:30:54;;;;;;;;;;;;;;;37.06;30.67;101265.63;4927913;28;98186;-67
2023/07/07 07:33:22;;;;;;;;;;;;;;;37.22;30.15;101270.53;4928794;28;99260;-71
2023/07/07 07:35:49;;;;;;;;;;;;;;;37.19;30.68;101259.38;4938737;28;98490;-67
2023/07/07 07:38:19;;;;;;;;;;;;;;;37.31;30.40;101262.31;4944630;28;98154;-67
2023/07/07 07:40:45;;;;;;;;;;;;;;;37.59;30.15;101262.97;4930339;27;98667;-71
2023/07/07 07:43:12;;;;;;;;;;;;;;;37.90;30.04;101260.69;4933165;28;98506;-67
2023/07/07 07:45:38;;;;;;;;;;;;;;;38.26;30.27;101262.63;4927246;27;98324;-67
2023/07/07 07:48:05;;;;;;;;;;;;;;;38.61;30.42;101263.78;4927590;28;98597;-72
2023/07/07 07:50:33;;;;;;;;;;;;;;;38.99;29.60;101260.38;4929686;28;98029;-71
2023/07/07 07:52:59;;;;;;;;;;;;;;;39.53;29.72;101262.44;4921741;27;100242;-67
2023/07/07 07:55:26;;;;;;;;;;;;;;;40.08;29.45;101259.56;4927991;28;98160;-68
2023/07/07 07:57:53;;;;;;;;;;;;;;;40.62;29.12;101253.72;4942653;27;98004;-71
2023/07/07 08:00:19;;;;;;;;;;;;;;;41.17;28.67;101253.41;4942556;27;97962;-68
2023/07/07 08:02:48;;;;;;;;;;;;;;;41.62;28.60;101260.56;4929304;28;97908;-68
2023/07/07 08:05:14;;;;;;;;;;;;;;;42.22;28.22;101256.56;4944007;27;98004;-72
2023/07/07 08:07:41;;;;;;;;;;;;;;;42.67;28.65;101264.38;4925288;28;99637;-67
2023/07/07 08:10:08;;;;;;;;;;;;;;;43.08;28.08;101260.16;4940540;28;100058;-68
2023/07/07 08:12:34;;;;;;;;;;;;;;;43.66;28.00;101246.13;4940185;28;98134;-72
2023/07/07 08:15:00;;;;;;;;;;;;;;;44.18;27.83;101258.19;4920866;28;98232;-68
2023/07/07 08:17:28;;;;;;;;;;;;;;;44.70;27.65;101245.38;4925643;28;101154;-72
2023/07/07 08:19:55;;;;;;;;;;;;;;;45.36;27.46;101252.78;4925662;28;98211;-72
2023/07/07 08:22:23;;;;;;;;;;;;;;;45.99;26.93;101244.75;4944569;28;98320;-68
2023/07/07 08:24:53;;;;;;;;;;;;;;;46.62;27.14;101250.00;4921140;28;98170;-72
2023/07/07 08:27:20;;;;;;;;;;;;;;;47.04;27.05;101242.13;4937763;28;98500;-73
2023/07/07 08:29:48;;;;;;;;;;;;;;;47.46;26.89;101242.25;4928574;28;98534;-68
2023/07/07 08:32:21;;;;;;;;;;;;;;;47.84;26.67;101245.13;4943473;28;98137;-71
2023/07/07 08:34:51;;;;;;;;;;;;;;;48.17;26.62;101239.59;4926627;28;98515;-70
2023/07/07 08:37:18;;;;;;;;;;;;;;;48.57;26.39;101234.03;4941522;28;98390;-71
2023/07/07 08:39:48;;;;;;;;;;;;;;;48.79;26.31;101236.22;4926417;28;98674;-71
2023/07/07 08:42:37;;;;;;;;;;;;;;;48.81;26.73;101233.59;4942658;28;98139;-66
2023/07/07 08:45:05;;;;;;;;;;;;;;;49.02;26.71;101228.44;4941239;28;99738;-66
2023/07/07 08:47:50;;;;;;;;;;;;;;;49.25;26.41;101232.88;4924559;28;98123;-71
2023/07/07 08:50:31;;;;;;;;;;;;;;;49.76;26.16;101224.22;4948163;28;98414;-70
2023/07/07 08:53:17;;;;;;;;;;;;;;;50.01;26.01;101222.34;4953267;28;99717;-71
2023/07/07 08:56:03;;;;;;;;;;;;;;;50.16;26.38;101227.75;4957013;28;99581;-71
2023/07/07 08:58:52;;;;;;;;;;;;;;;50.52;26.02;101228.63;4960477;28;97958;-71
2023/07/07 09:01:46;;;;;;;;;;;;;;;50.71;25.73;101234.53;4940364;28;98177;-71
2023/07/07 09:04:21;;;;;;;;;;;;;;;51.01;26.18;101229.63;4931290;28;99830;-74
2023/07/07 09:07:03;;;;;;;;;;;;;;;51.19;26.05;101225.31;4929952;28;98112;-73
2023/07/07 09:09:41;;;;;;;;;;;;;;;51.22;26.12;101226.34;4934753;28;98181;-74
2023/07/07 09:12:13;;;;;;;;;;;;;;;51.43;26.00;101229.53;4952170;28;98103;-74
2023/07/07 09:14:40;;;;;;;;;;;;;;;51.00;26.19;101227.28;4949145;28;98983;-73
2023/07/07 09:17:15;;;;;;;;;;;;;;;50.70;26.09;101225.13;4924198;28;98006;-73
2023/07/07 09:19:42;;;;;;;;;;;;;;;49.62;27.12;101214.63;4928142;28;98090;-73
2023/07/07 09:22:40;;;;;;;;;;;;;;;50.39;26.11;101219.84;4924015;28;98144;-73
2023/07/07 09:25:15;;;;;;;;;;;;;;;49.43;26.96;101214.38;4939672;28;98500;-72
2023/07/07 09:28:00;;;;;;;;;;;;;;;45.44;29.46;101193.47;4958620;28;98356;-74
2023/07/07 09:30:33;;;;;;;;;;;;;;;43.11;30.83;101191.13;4935562;28;98885;-73
2023/07/07 09:33:00;;;;;;;;;;;;;;;42.85;30.83;101206.94;4918781;28;98319;-73
2023/07/07 09:35:31;;;;;;;;;;;;;;;41.06;31.99;101199.31;4940945;28;98150;-74
2023/07/07 09:38:25;;;;;;;;;;;;;;;39.76;32.27;101191.66;4920786;28;97845;-74
2023/07/07 09:41:19;;;;;;;;;;;;;;;38.67;32.67;101196.44;4941978;28;98018;-72
2023/07/07 09:44:15;;;;;;;;;;;;;;;37.52;33.22;101202.06;4920925;28;99365;-73
2023/07/07 09:46:50;;;;;;;;;;;;;;;36.76;33.23;101193.56;4939105;28;98035;-73
2023/07/07 09:49:31;;;;;;;;;;;;;;;37.87;31.94;101202.50;4942943;28;98470;-72
2023/07/07 09:52:17;;;;;;;;;;;;;;;38.04;31.80;101200.47;4936167;28;98200;-72
2023/07/07 09:54:45;;;;;;;;;;;;;;;37.45;31.97;101204.25;4938202;28;98356;-70
2023/07/07 09:58:01;;;;;;;;;;;;;;;36.68;32.42;101205.38;4922161;28;98264;-74
2023/07/07 10:00:27;;;;;;;;;;;;;;;35.81;32.80;101205.19;4914863;28;99075;-71
2023/07/07 10:02:54;;;;;;;;;;;;;;;35.09;33.04;101206.09;4926462;28;98064;-72
2023/07/07 10:05:29;;;;;;;;;;;;;;;36.17;31.88;101201.84;4962836;28;98155;-74
2023/07/07 10:07:55;;;;;;;;;;;;;;;40.12;28.39;101215.88;4921653;28;98021;-74
2023/07/07 10:10:21;;;;;;;;;;;;;;;39.59;29.21;101209.91;4914909;28;97966;-74
2023/07/07 10:12:48;;;;;;;;;;;;;;;40.43;28.76;101204.75;4938842;28;97922;-71
2023/07/07 10:15:40;;;;;;;;;;;;;;;42.54;27.31;101216.38;4924266;28;98016;-74
2023/07/07 10:18:21;;;;;;;;;;;;;;;44.02;26.90;101211.09;4952814;28;98216;-75
2023/07/07 10:20:47;;;;;;;;;;;;;;;44.94;26.38;101201.88;4936579;28;97918;-76
2023/07/07 10:23:14;;;;;;;;;;;;;;;45.71;26.25;101209.38;4923682;28;98263;-76
2023/07/07 10:25:41;;;;;;;;;;;;;;;46.36;26.16;101209.25;4917854;28;98197;-71
2023/07/07 10:28:13;;;;;;;;;;;;;;;46.79;26.15;101209.47;4922803;28;98048;-76
2023/07/07 10:30:40;;;;;;;;;;;;;;;47.12;26.47;101203.31;4923866;28;98162;-71
2023/07/07 10:33:08;;;;;;;;;;;;;;;47.51;26.26;101205.69;4949406;28;98031;-75
2023/07/07 10:35:34;;;;;;;;;;;;;;;47.39;26.53;101194.22;4921365;28;98832;-70
2023/07/07 10:38:04;;;;;;;;;;;;;;;44.09;28.80;101183.16;4921649;28;98025;-75
2023/07/07 10:40:30;;;;;;;;;;;;;;;43.98;28.55;101180.09;4938371;28;98948;-75
2023/07/07 10:42:58;;;;;;;;;;;;;;;45.39;27.43;101177.81;4933406;28;97995;-75
2023/07/07 10:45:25;;;;;;;;;;;;;;;43.54;28.91;101174.94;4934820;28;101071;-75
2023/07/07 10:47:51;;;;;;;;;;;;;;;44.79;27.83;101179.13;4933253;28;98169;-75
2023/07/07 10:50:20;;;;;;;;;;;;;;;43.99;28.20;101173.16;4939422;28;99189;-75
2023/07/07 10:53:08;;;;;;;;;;;;;;;41.22;30.51;101165.16;4932355;28;98104;-74
2023/07/07 10:56:01;;;;;;;;;;;;;;;39.62;31.35;101161.06;4935700;28;98117;-69
2023/07/07 10:58:55;;;;;;;;;;;;;;;39.17;31.34;101164.84;4938612;28;98011;-70
2023/07/07 11:01:40;;;;;;;;;;;;;;;42.20;28.60;101176.97;4946567;28;98355;-70
2023/07/07 11:04:06;;;;;;;;;;;;;;;43.43;27.40;101179.53;4938344;28;97871;-74
2023/07/07 11:06:59;;;;;;;;;;;;;;;44.00;27.47;101180.38;4878762;28;1898279;-74
2023/07/07 11:09:34;;;;;;;;;;;;;;;44.52;27.26;101174.47;4927834;28;98178;-69
2023/07/07 11:12:10;;;;;;;;;;;;;;;45.00;27.08;101165.78;4937593;28;98312;-74
2023/07/07 11:15:01;;;;;;;;;;;;;;;44.45;27.46;101166.31;4950060;28;98605;-70
2023/07/07 11:18:01;;;;;;;;;;;;;;;45.16;26.72;101164.53;4934889;28;98915;-69
2023/07/07 11:20:52;;;;;;;;;;;;;;;45.66;26.95;101165.31;4925495;28;100134;-75
2023/07/07 11:23:38;;;;;;;;;;;;;;;45.30;27.31;101155.97;4937926;28;98118;-73
2023/07/07 11:26:26;;;;;;;;;;;;;;;45.39;27.15;101151.44;4939964;28;98430;-73
2023/07/07 11:29:03;;;;;;;;;;;;;;;43.97;28.14;101152.19;4952547;28;98375;-67
2023/07/07 11:31:41;;;;;;;;;;;;;;;44.80;27.54;101161.59;4921565;28;98716;-71
2023/07/07 11:34:35;;;;;;;;;;;;;;;44.73;27.72;101147.78;4928641;28;98318;-68
2023/07/07 11:37:06;;;;;;;;;;;;;;;44.74;27.59;101146.50;4939305;28;98390;-71
2023/07/07 11:39:45;;;;;;;;;;;;;;;44.40;27.94;101141.44;4956117;28;98513;-65
2023/07/07 11:42:41;;;;;;;;;;;;;;;44.15;28.27;101140.69;4934580;28;98239;-65
2023/07/07 11:45:31;;;;;;;;;;;;;;;43.97;28.39;101140.81;4916757;28;98148;-71
2023/07/07 11:48:16;;;;;;;;;;;;;;;43.72;28.36;101140.03;4937091;28;98574;-71
2023/07/07 11:51:05;;;;;;;;;;;;;;;43.59;28.71;101133.81;4928242;28;98549;-66
2023/07/07 11:54:01;;;;;;;;;;;;;;;43.43;28.87;101139.81;4944297;28;98301;-65
2023/07/07 11:56:33;;;;;;;;;;;;;;;43.20;28.72;101135.69;4933056;28;99800;-66
2023/07/07 11:59:12;;;;;;;;;;;;;;;42.97;28.96;101128.66;4947763;28;98311;-65
2023/07/07 12:01:43;;;;;;;;;;;;;;;42.73;28.67;101137.06;4937062;28;98042;-71
2023/07/07 12:04:24;;;;;;;;;;;;;;;42.70;28.66;101124.63;4930989;28;98283;-71
2023/07/07 12:06:54;;;;;;;;;;;;;;;42.60;29.18;101118.19;4953769;28;98485;-65
2023/07/07 12:09:29;;;;;;;;;;;;;;;42.53;29.18;101120.56;4921850;28;98345;-72
2023/07/07 12:12:23;;;;;;;;;;;;;;;42.47;28.74;101111.91;4937099;28;99475;-65
2023/07/07 12:14:56;;;;;;;;;;;;;;;42.52;29.04;101108.41;4925894;28;98828;-71
2023/07/07 12:17:33;;;;;;;;;;;;;;;42.56;28.83;101114.69;4922403;28;98349;-72
2023/07/07 12:20:24;;;;;;;;;;;;;;;42.47;28.81;101111.91;4930740;28;98251;-72
2023/07/07 12:22:50;;;;;;;;;;;;;;;42.39;29.03;101102.16;4937656;28;98114;-71
2023/07/07 12:25:27;;;;;;;;;;;;;;;42.37;28.86;101108.31;4916819;28;98384;-72
2023/07/07 12:27:53;;;;;;;;;;;;;;;42.42;28.90;101110.47;4917536;28;98355;-66
2023/07/07 12:30:33;;;;;;;;;;;;;;;42.47;29.00;101100.56;4937397;28;98044;-65
2023/07/07 12:32:59;;;;;;;;;;;;;;;42.15;28.51;101101.97;4938007;28;98377;-72
2023/07/07 12:35:48;;;;;;;;;;;;;;;41.84;28.91;101104.94;4913209;28;99642;-71
2023/07/07 12:38:27;;;;;;;;;;;;;;;41.70;28.93;101103.50;4938497;28;99747;-72
2023/07/07 12:40:55;;;;;;;;;;;;;;;41.71;28.80;101099.41;4937147;28;98001;-67
2023/07/07 12:43:28;;;;;;;;;;;;;;;41.56;28.79;101104.88;4920501;28;98096;-67
2023/07/07 12:45:56;;;;;;;;;;;;;;;41.52;28.67;101095.75;4930206;28;98276;-74
2023/07/07 12:48:26;;;;;;;;;;;;;;;41.54;28.69;101078.28;4921832;28;98358;-73
2023/07/07 12:51:00;;;;;;;;;;;;;;;41.56;28.65;101090.72;4917483;28;98264;-73
2023/07/07 12:53:36;;;;;;;;;;;;;;;41.25;29.05;101081.50;4916151;28;98398;-66
2023/07/07 12:56:05;;;;;;;;;;;;;;;39.88;29.75;101076.44;4937789;28;98389;-73